Time;durP1;ratioP1;P1;durP2;ratioP2;P2;SDS_P1;SDS_P2;PMS_P1;PMS_P2;Temp;Humidity;BMP_temperature;BMP_pressure;BME280_temperature;BME280_humidity;BME280_pressure;Samples;Min_cycle;Max_cycle;Signal;HPM_P1;HPM_P2
2022/10/11 00:02:11;;;;;;;10.00;2.50;;;;;;;;;;4965116;28;20528;-76
2022/10/11 00:04:37;;;;;;;12.00;3.00;;;;;;;;;;4973137;28;20069;-76
2022/10/11 00:07:03;;;;;;;8.75;2.38;;;;;;;;;;4973096;28;20092;-76
2022/10/11 00:09:29;;;;;;;10.68;2.90;;;;;;;;;;4972224;28;20126;-76
2022/10/11 00:11:56;;;;;;;15.85;2.88;;;;;;;;;;4957856;28;20454;-76
2022/10/11 00:14:22;;;;;;;7.88;2.38;;;;;;;;;;4951844;29;20055;-76
2022/10/11 00:16:48;;;;;;;10.25;2.55;;;;;;;;;;4962797;28;20436;-76
2022/10/11 00:19:14;;;;;;;8.75;2.38;;;;;;;;;;4959872;28;20366;-76
2022/10/11 00:21:40;;;;;;;7.07;2.58;;;;;;;;;;4972778;28;20382;-76
2022/10/11 00:24:07;;;;;;;8.63;2.42;;;;;;;;;;4972518;28;20433;-76
2022/10/11 00:26:33;;;;;;;9.48;2.25;;;;;;;;;;4959539;28;20402;-76
2022/10/11 00:28:59;;;;;;;9.40;2.40;;;;;;;;;;4952914;29;20043;-76
2022/10/11 00:31:25;;;;;;;6.13;2.22;;;;;;;;;;4951825;28;20052;-76
2022/10/11 00:33:52;;;;;;;9.00;2.63;;;;;;;;;;4971341;28;20138;-76
2022/10/11 00:36:21;;;;;;;10.20;2.75;;;;;;;;;;4952085;28;20130;-76
2022/10/11 00:38:47;;;;;;;11.80;3.28;;;;;;;;;;4953293;28;20040;-76
2022/10/11 00:41:13;;;;;;;9.77;2.90;;;;;;;;;;4952975;28;20050;-76
2022/10/11 00:43:39;;;;;;;10.05;2.88;;;;;;;;;;4952903;28;20051;-76
2022/10/11 00:46:17;;;;;;;18.90;3.50;;;;;;;;;;4957429;28;20039;-76
2022/10/11 00:48:55;;;;;;;11.82;2.65;;;;;;;;;;4971296;28;20050;-76
2022/10/11 00:51:30;;;;;;;7.63;2.17;;;;;;;;;;4972045;28;20050;-76
2022/10/11 00:53:58;;;;;;;9.23;2.60;;;;;;;;;;4972049;28;20070;-76
2022/10/11 00:56:27;;;;;;;10.57;2.63;;;;;;;;;;4972208;28;20058;-76
2022/10/11 00:58:54;;;;;;;12.40;2.92;;;;;;;;;;4970707;28;20051;-76
2022/10/11 01:01:20;;;;;;;11.35;3.17;;;;;;;;;;4963289;28;20050;-76
2022/10/11 01:03:46;;;;;;;13.63;3.40;;;;;;;;;;4952401;28;20124;-76
2022/10/11 01:06:12;;;;;;;11.10;2.50;;;;;;;;;;4952822;28;20051;-76
2022/10/11 01:08:39;;;;;;;10.35;2.95;;;;;;;;;;4955796;28;20050;-76
2022/10/11 01:11:05;;;;;;;10.05;2.50;;;;;;;;;;4971463;28;20125;-76
2022/10/11 01:13:37;;;;;;;11.65;3.15;;;;;;;;;;4968090;28;20047;-76
2022/10/11 01:16:14;;;;;;;8.82;2.67;;;;;;;;;;4970490;28;20046;-76
2022/10/11 01:18:49;;;;;;;11.13;2.58;;;;;;;;;;4971805;28;20397;-76
2022/10/11 01:21:21;;;;;;;14.43;3.17;;;;;;;;;;4971817;28;20142;-76
2022/10/11 01:23:47;;;;;;;9.52;2.88;;;;;;;;;;4971193;28;20429;-76
2022/10/11 01:26:22;;;;;;;8.60;2.50;;;;;;;;;;4971378;28;20045;-76
2022/10/11 01:29:09;;;;;;;10.60;2.42;;;;;;;;;;4970508;28;20043;-76
2022/10/11 01:31:47;;;;;;;10.07;2.45;;;;;;;;;;4969555;28;20378;-76
2022/10/11 01:34:32;;;;;;;10.90;2.90;;;;;;;;;;4970116;28;20065;-76
2022/10/11 01:37:05;;;;;;;10.57;2.97;;;;;;;;;;4960574;28;20101;-76
2022/10/11 01:39:36;;;;;;;7.78;2.50;;;;;;;;;;4971133;28;20370;-76
2022/10/11 01:42:03;;;;;;;10.57;2.55;;;;;;;;;;4964533;28;20054;-76
2022/10/11 01:44:29;;;;;;;8.38;2.38;;;;;;;;;;4971166;28;20043;-76
2022/10/11 01:46:58;;;;;;;10.88;3.20;;;;;;;;;;4971131;28;20050;-76
2022/10/11 01:49:24;;;;;;;11.68;2.85;;;;;;;;;;4971418;28;20145;-76
2022/10/11 01:51:52;;;;;;;6.70;2.20;;;;;;;;;;4970367;28;20142;-76
2022/10/11 01:54:30;;;;;;;8.40;2.53;;;;;;;;;;4971413;28;20129;-76
2022/10/11 01:57:08;;;;;;;10.30;2.25;;;;;;;;;;4958629;28;20043;-76
2022/10/11 01:59:34;;;;;;;6.82;2.45;;;;;;;;;;4952131;29;20043;-76
2022/10/11 02:02:18;;;;;;;11.23;3.13;;;;;;;;;;4951795;29;20047;-76
2022/10/11 02:05:03;;;;;;;11.63;3.20;;;;;;;;;;4953191;28;20486;-76
2022/10/11 02:07:33;;;;;;;8.30;2.72;;;;;;;;;;4974687;28;20092;-76
2022/10/11 02:10:07;;;;;;;10.10;2.50;;;;;;;;;;4974572;28;20050;-76
2022/10/11 02:12:35;;;;;;;14.13;3.28;;;;;;;;;;4969105;28;20047;-76
2022/10/11 02:15:02;;;;;;;7.53;2.15;;;;;;;;;;4954712;29;20059;-76
2022/10/11 02:17:31;;;;;;;13.00;3.10;;;;;;;;;;4954835;28;20547;-76
2022/10/11 02:19:58;;;;;;;9.00;2.65;;;;;;;;;;5042780;28;20047;-76
2022/10/11 02:22:27;;;;;;;12.43;2.75;;;;;;;;;;4974006;28;20046;-76
2022/10/11 02:24:55;;;;;;;13.23;2.85;;;;;;;;;;4974377;28;20367;-76
2022/10/11 02:27:23;;;;;;;8.60;2.42;;;;;;;;;;4971213;28;20051;-76
2022/10/11 02:29:51;;;;;;;13.40;2.85;;;;;;;;;;4955213;28;20047;-76
2022/10/11 02:32:17;;;;;;;11.32;2.75;;;;;;;;;;4967489;28;20039;-76
2022/10/11 02:35:09;;;;;;;14.15;2.72;;;;;;;;;;4973408;28;20074;-76
2022/10/11 02:37:56;;;;;;;11.50;2.97;;;;;;;;;;4956407;28;20082;-76
2022/10/11 02:40:28;;;;;;;9.00;2.60;;;;;;;;;;4954638;28;20062;-76
2022/10/11 02:42:58;;;;;;;15.75;3.03;;;;;;;;;;4964312;28;20063;-76
2022/10/11 02:45:34;;;;;;;9.98;2.92;;;;;;;;;;4974043;28;20104;-76
2022/10/11 02:48:00;;;;;;;12.05;3.03;;;;;;;;;;4973720;28;20138;-76
2022/10/11 02:50:27;;;;;;;12.48;2.72;;;;;;;;;;4973693;28;20501;-76
2022/10/11 02:52:53;;;;;;;13.38;2.65;;;;;;;;;;4973433;28;20050;-76
2022/10/11 02:55:19;;;;;;;13.48;3.53;;;;;;;;;;4973364;28;20118;-76
2022/10/11 02:57:45;;;;;;;11.88;2.67;;;;;;;;;;4963026;28;20413;-76
2022/10/11 03:00:12;;;;;;;11.73;2.95;;;;;;;;;;4954484;28;20043;-76
2022/10/11 03:02:38;;;;;;;10.77;2.70;;;;;;;;;;4954779;29;20047;-76
2022/10/11 03:05:04;;;;;;;16.42;3.45;;;;;;;;;;4961753;28;20096;-76
2022/10/11 03:07:30;;;;;;;13.45;3.60;;;;;;;;;;4973478;28;20046;-76
2022/10/11 03:09:56;;;;;;;13.88;3.40;;;;;;;;;;4973756;28;20073;-76
2022/10/11 03:12:22;;;;;;;9.50;2.58;;;;;;;;;;4968393;28;20378;-76
2022/10/11 03:14:48;;;;;;;11.15;2.60;;;;;;;;;;4973619;28;20482;-76
2022/10/11 03:17:14;;;;;;;12.25;2.75;;;;;;;;;;4972697;28;20047;-76
2022/10/11 03:19:40;;;;;;;13.15;2.90;;;;;;;;;;4972422;28;20054;-76
2022/10/11 03:22:06;;;;;;;10.40;3.65;;;;;;;;;;4973161;28;20051;-76
2022/10/11 03:24:32;;;;;;;10.68;3.47;;;;;;;;;;4974030;28;20069;-76
2022/10/11 03:26:58;;;;;;;14.27;2.72;;;;;;;;;;4969651;28;20122;-76
2022/10/11 03:29:24;;;;;;;14.07;4.05;;;;;;;;;;4954557;28;20043;-76
2022/10/11 03:31:50;;;;;;;10.13;2.55;;;;;;;;;;4965579;28;20097;-76
2022/10/11 03:34:16;;;;;;;10.55;2.60;;;;;;;;;;4967152;28;20051;-76
2022/10/11 03:36:43;;;;;;;10.40;3.47;;;;;;;;;;4953400;29;20047;-76
2022/10/11 03:39:09;;;;;;;10.13;2.58;;;;;;;;;;4954169;29;20470;-76
2022/10/11 03:41:35;;;;;;;11.88;2.78;;;;;;;;;;4960328;28;20446;-76
2022/10/11 03:44:01;;;;;;;7.97;3.10;;;;;;;;;;4972206;28;20066;-76
2022/10/11 03:46:27;;;;;;;15.75;3.22;;;;;;;;;;4973007;28;20127;-76
2022/10/11 03:48:53;;;;;;;13.30;3.70;;;;;;;;;;4971731;28;20046;-76
2022/10/11 03:51:19;;;;;;;12.98;2.90;;;;;;;;;;4972699;28;20448;-76
2022/10/11 03:53:45;;;;;;;13.27;2.97;;;;;;;;;;4972675;28;20474;-76
2022/10/11 03:56:11;;;;;;;10.75;2.83;;;;;;;;;;4972251;28;20078;-76
2022/10/11 03:58:37;;;;;;;10.38;2.85;;;;;;;;;;4972957;28;20066;-76
2022/10/11 04:01:03;;;;;;;10.43;2.80;;;;;;;;;;4971621;28;20051;-76
2022/10/11 04:03:29;;;;;;;13.55;2.75;;;;;;;;;;4954291;28;20047;-76
2022/10/11 04:05:55;;;;;;;13.63;3.47;;;;;;;;;;4953335;28;20047;-76
2022/10/11 04:08:21;;;;;;;10.32;2.83;;;;;;;;;;4954033;28;20057;-76
2022/10/11 04:10:48;;;;;;;14.13;2.95;;;;;;;;;;4972562;28;20069;-76
2022/10/11 04:13:14;;;;;;;10.60;3.22;;;;;;;;;;4970792;28;20051;-76
2022/10/11 04:15:40;;;;;;;15.75;3.65;;;;;;;;;;4971089;28;20049;-76
2022/10/11 04:18:06;;;;;;;9.73;2.92;;;;;;;;;;4955148;28;20051;-76
2022/10/11 04:20:33;;;;;;;9.35;2.80;;;;;;;;;;4953059;29;20063;-76
2022/10/11 04:22:59;;;;;;;11.10;2.88;;;;;;;;;;4953714;28;20055;-76
2022/10/11 04:25:25;;;;;;;12.95;3.35;;;;;;;;;;4972851;28;20055;-76
2022/10/11 04:27:51;;;;;;;10.57;2.97;;;;;;;;;;4959630;28;20050;-76
2022/10/11 04:30:17;;;;;;;12.52;3.25;;;;;;;;;;4953993;28;20050;-76
2022/10/11 04:32:44;;;;;;;10.52;2.90;;;;;;;;;;4971929;28;20039;-76
2022/10/11 04:35:10;;;;;;;14.27;3.05;;;;;;;;;;4972374;28;20042;-76
2022/10/11 04:37:36;;;;;;;11.05;3.00;;;;;;;;;;4971680;28;20078;-76
2022/10/11 04:40:02;;;;;;;8.88;2.88;;;;;;;;;;4953143;29;20054;-76
2022/10/11 04:42:28;;;;;;;10.88;3.10;;;;;;;;;;4958800;28;20043;-76
2022/10/11 04:44:54;;;;;;;15.10;3.10;;;;;;;;;;4967672;28;20062;-76
2022/10/11 04:47:20;;;;;;;11.85;3.10;;;;;;;;;;4952732;28;20466;-76
2022/10/11 04:49:46;;;;;;;9.73;3.75;;;;;;;;;;4953085;28;20052;-76
2022/10/11 04:52:12;;;;;;;11.70;2.72;;;;;;;;;;4951006;28;20058;-76
2022/10/11 04:54:38;;;;;;;12.90;3.05;;;;;;;;;;4952988;28;20490;-76
2022/10/11 04:57:04;;;;;;;10.88;2.80;;;;;;;;;;4952886;29;20051;-76
2022/10/11 04:59:31;;;;;;;9.20;2.90;;;;;;;;;;4951795;28;20071;-76
2022/10/11 05:01:57;;;;;;;14.05;3.38;;;;;;;;;;4952728;28;20043;-76
2022/10/11 05:04:23;;;;;;;12.20;3.00;;;;;;;;;;4952109;28;20060;-76
2022/10/11 05:06:49;;;;;;;10.98;2.90;;;;;;;;;;4952215;28;20047;-76
2022/10/11 05:09:15;;;;;;;10.30;2.70;;;;;;;;;;4969760;28;20043;-76
2022/10/11 05:11:41;;;;;;;15.07;2.97;;;;;;;;;;4970746;28;20497;-76
2022/10/11 05:14:07;;;;;;;13.65;3.05;;;;;;;;;;4953774;28;20051;-76
2022/10/11 05:16:33;;;;;;;20.77;3.65;;;;;;;;;;4971551;28;20055;-76
2022/10/11 05:18:59;;;;;;;15.48;4.03;;;;;;;;;;4970640;28;20481;-76
2022/10/11 05:21:26;;;;;;;16.02;3.60;;;;;;;;;;4958298;28;20058;-77
2022/10/11 05:23:54;;;;;;;13.20;3.10;;;;;;;;;;4967846;28;20051;-76
2022/10/11 05:26:21;;;;;;;12.70;3.50;;;;;;;;;;4952868;28;20047;-76
2022/10/11 05:28:47;;;;;;;13.48;2.75;;;;;;;;;;4952262;29;20043;-76
2022/10/11 05:31:13;;;;;;;10.60;2.83;;;;;;;;;;4952452;29;20055;-76
2022/10/11 05:33:39;;;;;;;14.82;2.75;;;;;;;;;;4952664;29;20047;-76
2022/10/11 05:36:06;;;;;;;15.43;2.90;;;;;;;;;;4952514;28;20046;-76
2022/10/11 05:38:32;;;;;;;12.48;3.45;;;;;;;;;;4952563;28;20047;-76
2022/10/11 05:40:59;;;;;;;12.95;3.15;;;;;;;;;;4963843;28;20105;-76
2022/10/11 05:43:25;;;;;;;8.80;3.13;;;;;;;;;;4962666;28;20047;-76
2022/10/11 05:45:51;;;;;;;12.77;4.00;;;;;;;;;;4955090;28;20559;-76
2022/10/11 05:48:17;;;;;;;10.15;3.20;;;;;;;;;;4954986;28;20475;-76
2022/10/11 05:50:43;;;;;;;13.73;3.33;;;;;;;;;;4955658;28;20486;-77
2022/10/11 05:53:09;;;;;;;16.90;3.80;;;;;;;;;;4955856;29;20486;-77
2022/10/11 05:55:40;;;;;;;10.15;3.08;;;;;;;;;;4955886;29;20047;-79
2022/10/11 05:58:06;;;;;;;12.35;3.17;;;;;;;;;;4960167;28;20071;-79
2022/10/11 06:00:35;;;;;;;11.30;3.38;;;;;;;;;;4960922;28;20122;-78
2022/10/11 06:03:01;;;;;;;12.25;3.10;;;;;;;;;;4955717;28;20043;-78
2022/10/11 06:05:27;;;;;;;10.73;3.45;;;;;;;;;;4957117;29;20063;-78
2022/10/11 06:07:53;;;;;;;15.90;3.45;;;;;;;;;;4956411;29;20044;-79
2022/10/11 06:10:19;;;;;;;13.77;3.35;;;;;;;;;;4947122;28;20048;-79
2022/10/11 06:12:45;;;;;;;8.75;3.17;;;;;;;;;;4960389;28;20050;-78
2022/10/11 06:15:12;;;;;;;15.88;3.72;;;;;;;;;;4974908;28;20072;-78
2022/10/11 06:17:38;;;;;;;14.75;3.10;;;;;;;;;;4975232;28;20042;-78
2022/10/11 06:20:04;;;;;;;9.82;3.10;;;;;;;;;;4974066;28;20051;-78
2022/10/11 06:22:30;;;;;;;13.88;3.60;;;;;;;;;;4974697;28;20049;-78
2022/10/11 06:24:56;;;;;;;13.60;3.35;;;;;;;;;;4975556;28;20102;-81
2022/10/11 06:27:22;;;;;;;16.85;4.05;;;;;;;;;;4974702;28;20078;-77
2022/10/11 06:29:48;;;;;;;13.30;3.58;;;;;;;;;;4966230;28;20502;-78
2022/10/11 06:32:14;;;;;;;10.77;3.55;;;;;;;;;;4954855;28;20107;-78
2022/10/11 06:34:40;;;;;;;15.48;4.00;;;;;;;;;;4955136;28;20051;-78
2022/10/11 06:37:07;;;;;;;10.43;3.15;;;;;;;;;;4955248;28;20043;-77
2022/10/11 06:39:33;;;;;;;12.60;3.42;;;;;;;;;;4955154;28;20050;-77
2022/10/11 06:41:59;;;;;;;13.88;3.70;;;;;;;;;;4937820;28;20375;-76
2022/10/11 06:44:26;;;;;;;13.20;3.30;;;;;;;;;;4956911;28;20494;-77
2022/10/11 06:46:52;;;;;;;14.93;3.92;;;;;;;;;;4973703;28;20054;-77
2022/10/11 06:49:18;;;;;;;10.30;3.67;;;;;;;;;;4973664;28;20043;-77
2022/10/11 06:51:44;;;;;;;13.10;3.40;;;;;;;;;;4973088;28;20043;-77
2022/10/11 06:54:10;;;;;;;9.82;3.38;;;;;;;;;;4974030;28;20099;-77
2022/10/11 06:56:36;;;;;;;11.73;3.05;;;;;;;;;;4973694;28;20039;-77
2022/10/11 06:59:02;;;;;;;11.82;3.33;;;;;;;;;;4966695;28;20043;-77
2022/10/11 07:01:28;;;;;;;13.40;3.67;;;;;;;;;;4954521;28;20058;-76
2022/10/11 07:03:55;;;;;;;12.25;3.63;;;;;;;;;;4954815;29;20173;-76
2022/10/11 07:06:23;;;;;;;16.27;3.72;;;;;;;;;;4954487;29;20481;-76
2022/10/11 07:08:49;;;;;;;12.02;3.33;;;;;;;;;;4953823;28;20409;-76
2022/10/11 07:11:34;;;;;;;14.63;3.15;;;;;;;;;;4937380;29;20484;-76
2022/10/11 07:14:06;;;;;;;11.23;3.00;;;;;;;;;;4955631;28;20043;-76
2022/10/11 07:16:32;;;;;;;11.52;3.42;;;;;;;;;;4954700;29;20047;-76
2022/10/11 07:18:59;;;;;;;9.05;2.80;;;;;;;;;;4954004;28;20058;-76
2022/10/11 07:21:26;;;;;;;13.05;3.45;;;;;;;;;;4953557;28;20113;-76
2022/10/11 07:23:52;;;;;;;8.65;2.80;;;;;;;;;;4954024;28;20039;-76
2022/10/11 07:26:18;;;;;;;12.88;3.88;;;;;;;;;;4958350;28;20467;-77
2022/10/11 07:28:45;;;;;;;14.65;3.28;;;;;;;;;;4963770;28;20122;-78
2022/10/11 07:31:16;;;;;;;10.32;3.13;;;;;;;;;;4972846;28;20043;-78
2022/10/11 07:33:42;;;;;;;8.65;2.90;;;;;;;;;;4972939;28;20042;-78
2022/10/11 07:36:08;;;;;;;13.43;3.28;;;;;;;;;;4973315;28;20047;-78
2022/10/11 07:38:35;;;;;;;11.63;3.17;;;;;;;;;;4973307;28;20050;-78
2022/10/11 07:41:04;;;;;;;11.57;3.72;;;;;;;;;;4962923;28;20040;-78
2022/10/11 07:43:30;;;;;;;13.57;3.67;;;;;;;;;;4952765;28;20048;-78
2022/10/11 07:45:59;;;;;;;10.80;3.13;;;;;;;;;;4953345;28;20101;-78
2022/10/11 07:48:25;;;;;;;13.98;3.40;;;;;;;;;;4951871;28;20406;-78
2022/10/11 07:50:51;;;;;;;12.68;3.97;;;;;;;;;;4953436;28;20075;-78
2022/10/11 07:53:17;;;;;;;15.15;3.17;;;;;;;;;;4953132;28;20062;-78
2022/10/11 07:55:43;;;;;;;12.10;3.63;;;;;;;;;;4962593;28;20046;-78
2022/10/11 07:58:10;;;;;;;10.73;3.70;;;;;;;;;;4962831;28;20035;-78
2022/10/11 08:00:36;;;;;;;12.75;3.55;;;;;;;;;;4951711;29;20046;-78
2022/10/11 08:03:04;;;;;;;13.82;3.65;;;;;;;;;;4952545;28;20058;-78
2022/10/11 08:05:30;;;;;;;14.90;4.03;;;;;;;;;;4953244;28;20044;-78
2022/10/11 08:07:56;;;;;;;12.38;3.38;;;;;;;;;;4951984;28;20083;-78
2022/10/11 08:10:23;;;;;;;11.43;3.83;;;;;;;;;;4956322;28;20054;-78
2022/10/11 08:12:49;;;;;;;12.45;3.47;;;;;;;;;;4952111;28;20474;-78
2022/10/11 08:15:15;;;;;;;10.65;3.10;;;;;;;;;;4953070;28;20371;-78
2022/10/11 08:17:41;;;;;;;8.15;3.17;;;;;;;;;;4952948;28;20057;-76
2022/10/11 08:20:07;;;;;;;11.77;3.75;;;;;;;;;;4952992;28;20039;-78
2022/10/11 08:22:33;;;;;;;14.35;4.15;;;;;;;;;;4953435;28;20474;-76
2022/10/11 08:24:59;;;;;;;10.40;3.42;;;;;;;;;;4953504;28;20109;-77
2022/10/11 08:27:25;;;;;;;10.75;2.75;;;;;;;;;;4957508;28;20055;-76
2022/10/11 08:29:51;;;;;;;13.63;3.33;;;;;;;;;;4957939;28;20617;-76
2022/10/11 08:32:17;;;;;;;11.60;3.53;;;;;;;;;;4952667;29;20062;-76
2022/10/11 08:34:43;;;;;;;13.05;3.80;;;;;;;;;;4952790;28;20176;-76
2022/10/11 08:37:10;;;;;;;12.88;3.22;;;;;;;;;;4952682;28;20093;-76
2022/10/11 08:39:36;;;;;;;10.35;3.22;;;;;;;;;;4952103;28;20075;-76
2022/10/11 08:42:02;;;;;;;11.55;3.50;;;;;;;;;;4960246;28;20047;-76
2022/10/11 08:44:42;;;;;;;12.88;3.72;;;;;;;;;;4970716;28;20042;-76
2022/10/11 08:47:23;;;;;;;9.23;3.00;;;;;;;;;;4953917;28;20108;-76
2022/10/11 08:49:50;;;;;;;15.48;3.65;;;;;;;;;;4951987;29;20050;-76
2022/10/11 08:52:19;;;;;;;11.77;3.85;;;;;;;;;;4958259;28;20123;-80
2022/10/11 08:54:51;;;;;;;12.23;2.88;;;;;;;;;;4957161;28;20065;-76
2022/10/11 08:57:20;;;;;;;11.70;3.13;;;;;;;;;;4972370;28;20054;-77
2022/10/11 09:00:04;;;;;;;11.52;3.20;;;;;;;;;;4972174;28;20103;-78
2022/10/11 09:02:48;;;;;;;11.30;2.80;;;;;;;;;;4972279;28;20468;-77
2022/10/11 09:05:15;;;;;;;8.82;2.55;;;;;;;;;;4970768;28;20043;-77
2022/10/11 09:07:57;;;;;;;9.57;3.22;;;;;;;;;;4959549;28;20078;-78
2022/10/11 09:10:32;;;;;;;9.38;2.53;;;;;;;;;;4957030;28;20142;-75
2022/10/11 09:13:06;;;;;;;10.15;2.67;;;;;;;;;;4952536;29;20039;-77
2022/10/11 09:15:51;;;;;;;12.90;2.80;;;;;;;;;;4953710;29;20051;-76
2022/10/11 09:18:17;;;;;;;11.85;3.03;;;;;;;;;;4956019;28;20073;-76
2022/10/11 09:20:50;;;;;;;10.32;3.00;;;;;;;;;;4955958;29;20059;-77
2022/10/11 09:23:35;;;;;;;7.80;2.42;;;;;;;;;;4957183;28;20051;-75
2022/10/11 09:26:05;;;;;;;15.30;3.03;;;;;;;;;;4964838;28;20455;-76
2022/10/11 09:28:47;;;;;;;11.27;3.00;;;;;;;;;;4956020;28;20043;-76
2022/10/11 09:31:13;;;;;;;9.65;2.90;;;;;;;;;;4956124;28;20113;-76
2022/10/11 09:33:44;;;;;;;9.63;2.42;;;;;;;;;;4956100;28;20506;-76
2022/10/11 09:36:32;;;;;;;10.63;2.70;;;;;;;;;;4968721;28;20054;-76
2022/10/11 09:39:02;;;;;;;9.40;2.17;;;;;;;;;;4970767;28;20034;-75
2022/10/11 09:41:34;;;;;;;9.80;2.40;;;;;;;;;;4965961;28;20061;-77
2022/10/11 09:44:00;;;;;;;9.25;2.42;;;;;;;;;;4960672;28;20035;-76
2022/10/11 09:46:37;;;;;;;7.65;1.98;;;;;;;;;;4974917;28;20051;-76
2022/10/11 09:49:11;;;;;;;6.63;1.83;;;;;;;;;;4974350;28;20394;-76
2022/10/11 09:51:38;;;;;;;8.02;2.25;;;;;;;;;;4974596;28;20054;-76
2022/10/11 09:54:05;;;;;;;8.48;2.33;;;;;;;;;;4975137;28;20058;-76
2022/10/11 09:56:33;;;;;;;5.80;2.10;;;;;;;;;;4972660;28;20054;-76
2022/10/11 09:59:09;;;;;;;5.95;2.00;;;;;;;;;;4971110;28;20047;-76
2022/10/11 10:01:35;;;;;;;9.18;2.47;;;;;;;;;;4962947;28;20498;-76
2022/10/11 10:04:09;;;;;;;7.53;2.15;;;;;;;;;;4964123;28;20482;-76
2022/10/11 10:06:36;;;;;;;6.07;2.53;;;;;;;;;;4974721;28;20075;-76
2022/10/11 10:09:20;;;;;;;6.07;1.98;;;;;;;;;;4957228;28;20499;-76
2022/10/11 10:11:46;;;;;;;6.47;2.55;;;;;;;;;;4962776;28;20046;-76
2022/10/11 10:14:32;;;;;;;9.70;2.10;;;;;;;;;;4938401;28;20146;-76
2022/10/11 10:17:15;;;;;;;6.72;2.10;;;;;;;;;;4954742;28;20407;-76
2022/10/11 10:19:46;;;;;;;6.75;2.08;;;;;;;;;;4955045;28;20047;-77
2022/10/11 10:22:20;;;;;;;6.22;1.95;;;;;;;;;;4957191;28;20055;-76
2022/10/11 10:24:48;;;;;;;8.15;1.90;;;;;;;;;;4954741;29;20051;-77
2022/10/11 10:27:15;;;;;;;4.72;1.98;;;;;;;;;;4954179;28;20434;-76
2022/10/11 10:29:42;;;;;;;10.98;2.58;;;;;;;;;;4954720;28;20058;-76
2022/10/11 10:32:23;;;;;;;6.90;1.90;;;;;;;;;;4956350;28;20114;-77
2022/10/11 10:35:12;;;;;;;8.45;2.47;;;;;;;;;;4969609;28;20132;-76
2022/10/11 10:37:43;;;;;;;10.20;2.55;;;;;;;;;;4974108;28;20418;-76
2022/10/11 10:40:21;;;;;;;6.82;2.10;;;;;;;;;;4962959;28;20495;-76
2022/10/11 10:42:47;;;;;;;9.07;2.00;;;;;;;;;;4955027;28;20121;-77
2022/10/11 10:45:15;;;;;;;6.10;2.10;;;;;;;;;;4954420;29;20086;-77
2022/10/11 10:47:59;;;;;;;7.95;2.45;;;;;;;;;;4954886;28;20502;-77
2022/10/11 10:50:26;;;;;;;7.25;1.90;;;;;;;;;;4953190;29;20054;-76
2022/10/11 10:53:13;;;;;;;8.85;2.25;;;;;;;;;;4966061;28;20122;-76
2022/10/11 10:55:39;;;;;;;;;;;;;;;;;;4974638;28;20046;-77
2022/10/11 10:58:14;;;;;;;5.22;1.92;;;;;;;;;;4969595;28;19968;-78
2022/10/11 11:00:45;;;;;;;6.15;2.10;;;;;;;;;;4973672;28;20123;-76
2022/10/11 11:03:23;;;;;;;8.30;2.10;;;;;;;;;;4958481;28;20048;-76
2022/10/11 11:06:01;;;;;;;9.07;2.97;;;;;;;;;;4954412;28;20082;-76
2022/10/11 11:08:27;;;;;;;7.95;1.83;;;;;;;;;;4954288;28;20122;-76
2022/10/11 11:10:59;;;;;;;7.88;2.25;;;;;;;;;;4954235;28;20075;-76
2022/10/11 11:13:32;;;;;;;6.72;2.10;;;;;;;;;;4960238;28;20039;-76
2022/10/11 11:16:10;;;;;;;6.90;2.08;;;;;;;;;;4967679;28;20071;-77
2022/10/11 11:18:58;;;;;;;7.78;2.08;;;;;;;;;;4936780;28;20092;-77
2022/10/11 11:21:43;;;;;;;9.38;2.13;;;;;;;;;;4954446;28;20490;-77
2022/10/11 11:24:15;;;;;;;9.00;2.55;;;;;;;;;;4953783;29;20047;-76
2022/10/11 11:26:44;;;;;;;8.18;2.20;;;;;;;;;;4953583;29;20568;-76
2022/10/11 11:29:19;;;;;;;6.30;2.20;;;;;;;;;;4954174;29;20046;-76
2022/10/11 11:32:08;;;;;;;8.48;2.30;;;;;;;;;;4953849;28;20035;-76
2022/10/11 11:34:35;;;;;;;7.25;1.98;;;;;;;;;;4953887;28;20083;-76
2022/10/11 11:37:10;;;;;;;8.05;2.38;;;;;;;;;;4954579;28;20051;-76
2022/10/11 11:39:39;;;;;;;5.90;2.15;;;;;;;;;;4952510;28;20410;-76
2022/10/11 11:42:09;;;;;;;14.38;3.38;;;;;;;;;;4953648;28;20085;-76
2022/10/11 11:44:42;;;;;;;8.93;2.28;;;;;;;;;;4954144;28;20066;-76
2022/10/11 11:47:09;;;;;;;6.10;2.28;;;;;;;;;;4958041;28;20049;-76
2022/10/11 11:49:37;;;;;;;8.23;2.55;;;;;;;;;;4973436;28;20054;-76
2022/10/11 11:52:07;;;;;;;8.48;2.78;;;;;;;;;;4958688;28;20043;-76
2022/10/11 11:55:02;;;;;;;6.07;2.03;;;;;;;;;;4973434;28;20042;-76
2022/10/11 11:57:34;;;;;;;6.10;2.38;;;;;;;;;;4926803;29;20527;-76
2022/10/11 12:00:03;;;;;;;7.57;2.15;;;;;;;;;;4913568;29;20044;-77
2022/10/11 12:02:29;;;;;;;5.80;2.03;;;;;;;;;;4913019;28;20435;-76
2022/10/11 12:04:56;;;;;;;7.68;2.33;;;;;;;;;;4913465;29;20048;-77
2022/10/11 12:07:23;;;;;;;7.60;1.90;;;;;;;;;;5002804;28;20130;-77
2022/10/11 12:09:53;;;;;;;7.55;2.38;;;;;;;;;;4932316;29;20056;-76
2022/10/11 12:12:27;;;;;;;6.65;2.20;;;;;;;;;;4932182;29;20491;-77
2022/10/11 12:15:09;;;;;;;7.65;2.53;;;;;;;;;;4950401;29;20442;-77
2022/10/11 12:17:55;;;;;;;7.72;2.03;;;;;;;;;;4952060;29;20045;-76
2022/10/11 12:20:23;;;;;;;8.60;2.20;;;;;;;;;;4932564;29;20056;-80
2022/10/11 12:22:49;;;;;;;19.10;3.00;;;;;;;;;;4935034;28;20118;-80
2022/10/11 12:25:16;;;;;;;8.38;2.63;;;;;;;;;;4998712;28;20135;-79
2022/10/11 12:27:43;;;;;;;9.70;2.33;;;;;;;;;;4915445;29;20101;-79
2022/10/11 12:30:28;;;;;;;7.07;2.20;;;;;;;;;;4921268;29;20072;-79
2022/10/11 12:33:02;;;;;;;6.88;2.17;;;;;;;;;;4917813;29;20140;-79
2022/10/11 12:35:31;;;;;;;5.80;2.22;;;;;;;;;;4953540;28;20061;-79
2022/10/11 12:38:05;;;;;;;8.73;2.35;;;;;;;;;;4976384;28;20141;-79
2022/10/11 12:40:34;;;;;;;4.15;1.95;;;;;;;;;;4972653;28;20051;-79
2022/10/11 12:43:16;;;;;;;8.23;2.10;;;;;;;;;;4971181;28;20055;-79
2022/10/11 12:45:46;;;;;;;7.97;2.78;;;;;;;;;;4971239;28;20065;-79
2022/10/11 12:48:31;;;;;;;4.80;1.70;;;;;;;;;;4972366;28;20047;-80
2022/10/11 12:51:03;;;;;;;7.30;2.15;;;;;;;;;;4953036;28;20506;-79
2022/10/11 12:53:39;;;;;;;9.50;2.40;;;;;;;;;;4954222;28;20130;-79
2022/10/11 12:56:24;;;;;;;7.00;2.53;;;;;;;;;;4956934;28;20046;-79
2022/10/11 12:59:00;;;;;;;6.90;2.00;;;;;;;;;;4964682;28;20055;-79
2022/10/11 13:01:28;;;;;;;5.47;1.90;;;;;;;;;;4955127;28;20498;-78
2022/10/11 13:04:00;;;;;;;6.88;1.95;;;;;;;;;;4956864;28;20039;-76
2022/10/11 13:06:28;;;;;;;8.30;2.63;;;;;;;;;;4961927;28;20480;-78
2022/10/11 13:09:17;;;;;;;5.60;1.80;;;;;;;;;;4962691;28;20049;-78
2022/10/11 13:11:48;;;;;;;6.95;2.25;;;;;;;;;;4957869;28;20031;-79
2022/10/11 13:14:16;;;;;;;7.80;2.63;;;;;;;;;;4962395;28;20054;-82
2022/10/11 13:16:47;;;;;;;4.68;2.10;;;;;;;;;;4972702;28;20054;-78
2022/10/11 13:19:14;;;;;;;6.60;2.17;;;;;;;;;;4970844;28;20130;-78
2022/10/11 13:21:41;;;;;;;6.50;2.17;;;;;;;;;;4970473;28;20055;-78
2022/10/11 13:24:14;;;;;;;6.85;1.90;;;;;;;;;;4955086;28;20097;-78
2022/10/11 13:26:42;;;;;;;8.57;2.40;;;;;;;;;;4960184;28;20517;-78
2022/10/11 13:29:32;;;;;;;5.55;2.03;;;;;;;;;;4954056;28;20042;-78
2022/10/11 13:31:59;;;;;;;8.38;2.22;;;;;;;;;;4949809;28;20145;-78
2022/10/11 13:34:25;;;;;;;11.05;2.55;;;;;;;;;;4970389;28;20081;-78
2022/10/11 13:36:55;;;;;;;7.05;2.38;;;;;;;;;;4971533;28;20046;-79
2022/10/11 13:39:29;;;;;;;8.00;2.50;;;;;;;;;;4951271;28;20058;-78
2022/10/11 13:41:56;;;;;;;6.00;1.85;;;;;;;;;;4952189;28;20181;-78
2022/10/11 13:44:23;;;;;;;7.40;2.17;;;;;;;;;;4951735;28;20437;-78
2022/10/11 13:46:49;;;;;;;7.00;2.10;;;;;;;;;;4963137;28;20104;-78
2022/10/11 13:49:28;;;;;;;5.95;1.95;;;;;;;;;;4971446;28;20057;-78
2022/10/11 13:51:59;;;;;;;5.28;2.08;;;;;;;;;;4971089;28;20055;-78
2022/10/11 13:54:25;;;;;;;6.47;1.90;;;;;;;;;;4971344;28;20054;-78
2022/10/11 13:56:52;;;;;;;7.35;2.33;;;;;;;;;;4971002;28;20507;-78
2022/10/11 13:59:22;;;;;;;7.32;2.30;;;;;;;;;;4973264;28;20039;-76
2022/10/11 14:01:48;;;;;;;10.68;2.42;;;;;;;;;;4982210;28;20086;-75
2022/10/11 14:04:16;;;;;;;6.32;1.98;;;;;;;;;;4964932;28;20513;-75
2022/10/11 14:06:47;;;;;;;8.27;2.47;;;;;;;;;;4954165;29;20051;-76
2022/10/11 14:09:33;;;;;;;7.20;2.20;;;;;;;;;;4955571;28;20047;-78
2022/10/11 14:12:18;;;;;;;7.15;1.90;;;;;;;;;;4955371;28;20070;-76
2022/10/11 14:14:47;;;;;;;7.45;2.17;;;;;;;;;;4954871;28;20509;-76
2022/10/11 14:17:18;;;;;;;9.90;2.53;;;;;;;;;;4955221;28;20047;-75
2022/10/11 14:19:45;;;;;;;7.63;2.10;;;;;;;;;;4955096;28;20483;-75
2022/10/11 14:22:15;;;;;;;7.47;2.17;;;;;;;;;;4954689;28;20417;-76
2022/10/11 14:24:42;;;;;;;7.45;2.28;;;;;;;;;;4954743;29;20508;-76
2022/10/11 14:27:13;;;;;;;7.80;2.25;;;;;;;;;;4987944;28;20036;-75
2022/10/11 14:29:43;;;;;;;7.43;2.25;;;;;;;;;;5077807;28;20033;-75
2022/10/11 14:32:20;;;;;;;8.02;3.17;;;;;;;;;;5075771;28;20490;-75
2022/10/11 14:34:48;;;;;;;9.73;2.10;;;;;;;;;;4966692;28;20039;-75
2022/10/11 14:37:17;;;;;;;11.77;2.63;;;;;;;;;;4954617;28;20142;-75
2022/10/11 14:39:44;;;;;;;9.07;2.50;;;;;;;;;;4954765;28;20416;-76
2022/10/11 14:42:10;;;;;;;8.05;1.90;;;;;;;;;;4961847;28;20170;-75
2022/10/11 14:44:37;;;;;;;5.88;2.00;;;;;;;;;;4947161;28;20104;-76
2022/10/11 14:47:05;;;;;;;6.93;2.30;;;;;;;;;;4974279;28;20095;-76
2022/10/11 14:49:33;;;;;;;6.93;2.78;;;;;;;;;;4959537;28;20113;-76
2022/10/11 14:51:59;;;;;;;8.10;2.45;;;;;;;;;;4972474;28;20225;-76